Stations météo

réclame
Mon MeteoGroup
Threave, Grande-Bretagne (99090): Température de l'air & dewpoint: 08.10.2019 19:00:00 - 14.10.2019 19:00:00 (BST)Threave, Grande-Bretagne (99090): Température de l'air -20cm & Température de l'air -100cm: 08.10.2019 19:00:00 - 14.10.2019 19:00:00 (BST)Threave, Grande-Bretagne (99090): Quantités de précipitations: 08.10.2019 19:00:00 - 14.10.2019 19:00:00 (BST)
Date & Time tt [°C] td [°C] tt -20cm [°C] tt -100cm [°C] rr [mm]
14.10.2019 19:00:00 9,1 8,2 - - 0,0
14.10.2019 18:00:00 10,9 9,2 - - 0,0
14.10.2019 17:00:00 13,0 9,3 - - 0,0
14.10.2019 16:00:00 13,7 10,7 - - 0,0
14.10.2019 15:00:00 12,3 10,7 - - 0,0
14.10.2019 14:00:00 11,7 10,6 - - 0,0
14.10.2019 13:00:00 10,5 10,3 - - 0,0
14.10.2019 12:00:00 9,0 9,0 - - 0,0
14.10.2019 11:00:00 6,8 6,7 - - 0,0
14.10.2019 10:00:00 5,2 5,2 10,7 12,0 0,0
14.10.2019 09:00:00 3,6 3,5 - - 0,0
14.10.2019 08:00:00 2,5 2,4 - - 0,0
14.10.2019 07:00:00 1,7 1,6 - - 0,0
14.10.2019 06:00:00 1,6 1,4 - - 0,2
14.10.2019 05:00:00 1,5 1,3 - - 0,0
14.10.2019 04:00:00 2,3 2,0 - - 0,0
14.10.2019 03:00:00 3,0 2,8 - - 0,0
14.10.2019 02:00:00 4,1 3,9 - - 0,0
14.10.2019 01:00:00 3,9 3,6 - - 0,0
14.10.2019 00:00:00 4,9 4,6 - - 0,0
13.10.2019 23:00:00 6,1 5,8 - - 0,0
13.10.2019 22:00:00 7,1 6,7 - - 0,0
13.10.2019 21:00:00 8,0 7,6 - - 0,0
13.10.2019 20:00:00 8,2 7,5 - - 0,8
13.10.2019 19:00:00 9,1 8,6 - - 0,2
13.10.2019 18:00:00 9,6 9,0 - - 0,8
13.10.2019 17:00:00 10,2 9,7 - - 0,8
13.10.2019 16:00:00 10,1 9,6 - - 1,6
13.10.2019 15:00:00 10,2 9,6 - - 1,2
13.10.2019 14:00:00 10,0 9,5 - - 0,8
13.10.2019 13:00:00 10,3 9,9 - - 0,0
13.10.2019 12:00:00 9,2 9,0 - - 0,0
13.10.2019 11:00:00 8,8 8,6 - - 0,0
13.10.2019 10:00:00 8,4 8,2 11,2 12,2 0,0
13.10.2019 09:00:00 7,6 7,5 - - 0,0
13.10.2019 08:00:00 6,8 6,7 - - 0,2
13.10.2019 07:00:00 6,4 6,2 - - 0,2
13.10.2019 06:00:00 5,1 4,9 - - 0,0
13.10.2019 05:00:00 5,0 4,5 - - 0,0
13.10.2019 04:00:00 5,3 4,6 - - 0,0
13.10.2019 03:00:00 7,1 6,7 - - 0,0
13.10.2019 02:00:00 7,6 7,0 - - 0,0
13.10.2019 01:00:00 8,6 8,0 - - 0,6
13.10.2019 00:00:00 8,7 8,2 - - 0,0
12.10.2019 23:00:00 8,5 7,9 - - 0,0
12.10.2019 22:00:00 8,7 7,6 - - 0,0
12.10.2019 21:00:00 8,7 7,4 - - 0,0
12.10.2019 20:00:00 9,5 7,8 - - 0,0
12.10.2019 19:00:00 10,4 7,6 - - 0,0
12.10.2019 18:00:00 11,3 7,7 - - 0,0
12.10.2019 17:00:00 12,6 8,1 - - 0,0
12.10.2019 16:00:00 13,2 9,1 - - 0,0
12.10.2019 15:00:00 12,4 7,8 - - 0,0
12.10.2019 14:00:00 12,5 7,9 - - 0,0
12.10.2019 13:00:00 12,7 7,8 - - 0,0
12.10.2019 12:00:00 12,4 7,6 - - 0,0
12.10.2019 11:00:00 11,8 8,3 - - 0,0
12.10.2019 10:00:00 10,0 8,8 11,7 12,2 0,0
12.10.2019 09:00:00 8,2 7,0 - - 0,0
12.10.2019 08:00:00 8,7 7,3 - - 0,0
12.10.2019 07:00:00 9,0 7,4 - - 0,0
12.10.2019 06:00:00 8,5 7,1 - - 0,0
12.10.2019 05:00:00 8,7 6,8 - - 0,0
12.10.2019 04:00:00 9,2 7,1 - - 0,0
12.10.2019 03:00:00 9,7 7,2 - - 0,0
12.10.2019 02:00:00 10,2 7,4 - - 0,0
12.10.2019 01:00:00 10,3 7,5 - - 0,0
12.10.2019 00:00:00 10,0 6,9 - - 0,0
11.10.2019 23:00:00 9,9 6,5 - - 0,0
11.10.2019 22:00:00 9,9 7,1 - - 0,0
11.10.2019 21:00:00 9,6 7,2 - - 0,0
11.10.2019 20:00:00 10,4 7,0 - - 0,0
11.10.2019 19:00:00 10,2 7,8 - - 0,0
11.10.2019 18:00:00 10,6 8,3 - - 0,0
11.10.2019 17:00:00 10,6 8,1 - - 1,0
11.10.2019 16:00:00 13,1 8,6 - - 0,0
11.10.2019 15:00:00 13,3 7,5 - - 0,0
11.10.2019 14:00:00 13,2 6,4 - - 0,0
11.10.2019 13:00:00 13,8 7,8 - - 0,0
11.10.2019 12:00:00 13,6 7,8 - - 0,0
11.10.2019 11:00:00 12,8 7,9 - - 0,0
11.10.2019 10:00:00 11,9 7,8 11,7 12,4 0,0
11.10.2019 09:00:00 10,6 7,6 - - 0,0
11.10.2019 08:00:00 10,4 7,5 - - 0,0
11.10.2019 07:00:00 10,6 7,7 - - 0,0
11.10.2019 06:00:00 10,2 8,1 - - 0,0
11.10.2019 05:00:00 9,7 7,3 - - 0,0
11.10.2019 04:00:00 10,6 7,5 - - 0,0
11.10.2019 03:00:00 11,1 8,0 - - 0,0
11.10.2019 02:00:00 12,1 9,7 - - 0,0
11.10.2019 01:00:00 13,0 10,4 - - 0,0
11.10.2019 00:00:00 13,0 10,8 - - 0,0
10.10.2019 23:00:00 12,9 10,8 - - 0,2
10.10.2019 22:00:00 12,9 10,7 - - 0,0
10.10.2019 21:00:00 13,1 10,7 - - 0,0
10.10.2019 20:00:00 13,1 9,9 - - 0,0
10.10.2019 19:00:00 13,0 10,0 - - 0,0
10.10.2019 18:00:00 13,3 11,0 - - 0,0
10.10.2019 17:00:00 13,5 11,6 - - 0,0
10.10.2019 16:00:00 12,8 11,3 - - 0,0
10.10.2019 15:00:00 10,5 9,9 - - 1,4
10.10.2019 14:00:00 9,9 8,8 - - 1,0
10.10.2019 13:00:00 11,5 9,8 - - 0,2
10.10.2019 12:00:00 11,9 8,7 - - 0,0
10.10.2019 11:00:00 11,7 8,5 - - 0,0
10.10.2019 10:00:00 11,1 8,1 11,7 12,4 0,0
10.10.2019 09:00:00 10,2 7,7 - - 0,0
10.10.2019 08:00:00 9,1 6,8 - - 0,0
10.10.2019 07:00:00 9,6 6,9 - - 0,0
10.10.2019 06:00:00 9,7 7,0 - - 0,0
10.10.2019 05:00:00 9,7 7,2 - - 0,0
10.10.2019 04:00:00 9,8 7,3 - - 0,0
10.10.2019 03:00:00 9,6 7,3 - - 0,0
10.10.2019 02:00:00 9,6 7,3 - - 0,0
10.10.2019 01:00:00 9,5 7,3 - - 0,0
10.10.2019 00:00:00 9,5 7,3 - - 0,0
09.10.2019 23:00:00 9,8 7,9 - - 0,0
09.10.2019 22:00:00 9,6 7,4 - - 0,0
09.10.2019 21:00:00 9,5 7,1 - - 0,0
09.10.2019 20:00:00 9,2 7,1 - - 0,0
09.10.2019 19:00:00 8,8 6,0 - - 0,0
09.10.2019 18:00:00 11,0 7,3 - - 0,0
09.10.2019 17:00:00 11,8 6,4 - - 0,0
09.10.2019 16:00:00 11,6 7,1 - - 0,0
09.10.2019 15:00:00 11,9 6,5 - - 0,0
09.10.2019 14:00:00 11,8 6,3 - - 0,0
09.10.2019 13:00:00 12,0 7,5 - - 0,0
09.10.2019 12:00:00 11,0 6,9 - - 0,0
09.10.2019 11:00:00 11,4 7,7 - - 0,0
09.10.2019 10:00:00 11,0 7,7 12,0 12,4 0,0
09.10.2019 09:00:00 9,3 6,8 - - 0,0
09.10.2019 08:00:00 9,3 7,1 - - 0,0
09.10.2019 07:00:00 9,3 7,1 - - 0,0
09.10.2019 06:00:00 10,0 7,4 - - 0,0
09.10.2019 05:00:00 9,9 7,6 - - 0,0
09.10.2019 04:00:00 9,9 7,7 - - 0,0
09.10.2019 03:00:00 9,7 7,6 - - 0,0
09.10.2019 02:00:00 10,4 7,8 - - 0,0
09.10.2019 01:00:00 10,7 8,0 - - 0,0
09.10.2019 00:00:00 10,3 7,6 - - 0,0
08.10.2019 23:00:00 11,1 7,8 - - 0,0
08.10.2019 22:00:00 11,2 7,8 - - 0,0
08.10.2019 21:00:00 11,2 8,1 - - 0,2
08.10.2019 20:00:00 11,0 8,4 - - 0,0
08.10.2019 19:00:00 10,4 8,5 - - 0,0

tt = Température de l'air
td = dewpoint
tt -20cm = Température de l'air -20cm
tt -100cm = Température de l'air -100cm
rr = Quantités de précipitations

stations d'obs. à proximité